Tiempo atmosférico en la estación meteorológica de Tarragona, Tarragona (60 m.)



Fecha
DESCASC
Temp. máxima en grados centígrados (hora)
DESCASC
Temp. mínima en grados centígrados (hora)
DESCASC
Temp. media en grados centígrados
DESCASC
Racha de viento máxima en m/sg (hora)
DESCASC
Velocidad máxima media en intervalos de 10 minutos(hora)
DESCASC
Precipitaciones diarias en mm
DESCASC
Precipitaciones de 00:00 a 06:00 en mm
DESCASC
Precipitaciones de 06:00 a 12:00 en mm
DESCASC
Precipitaciones de 12:00 a 18:00 en mm
DESCASC
Precipitaciones de 18:00 a 24:00 en mm
DESCASC
11-09-2019 26.6 (17:00) 14.7 (00:00) 20.7 -- (--) -- (--) 16 4.2 11.8 0 0
27-08-2019 27.5 (14:20) 21.4 (00:00) 24.4 -- (--) -- (--) 27.6 1 1.2 25.4 0
07-09-2019 26.6 (16:50) 15.7 (00:00) 21.2 -- (--) -- (--) 0 0 0 0 0
21-09-2019 26.3 (14:40) 19.3 (00:00) 22.8 -- (--) -- (--) 1.6 0 1.6 0 0
20-09-2019 26.7 (15:20) 18.2 (00:00) 22.5 -- (--) -- (--) 0 0 0 0 0
19-09-2019 27.4 (14:10) 20.3 (00:00) 23.8 -- (--) -- (--) 0 0 0 0 0
18-09-2019 30.1 (13:10) 18.9 (00:00) 24.5 -- (--) -- (--) 0 0 0 0 0
17-09-2019 28.4 (14:20) 18.1 (00:00) 23.3 -- (--) -- (--) 0 0 0 0 0
16-09-2019 27.7 (12:00) 19.5 (00:00) 23.6 -- (--) -- (--) 0 0 0 0 0
15-09-2019 28.3 (12:30) 19.3 (00:00) 23.8 -- (--) -- (--) 0 0 0 0 0
14-09-2019 27.1 (11:40) 18.7 (00:00) 22.9 -- (--) -- (--) 0 0 0 0 0
13-09-2019 27.2 (17:20) 18.5 (00:00) 22.9 -- (--) -- (--) 1.8 0 0 0 1.8
12-09-2019 28.7 (13:00) 20.1 (00:00) 24.4 -- (--) -- (--) 0 0 0 0 0
10-09-2019 24.4 (00:00) 14.8 (23:10) 19.6 -- (--) -- (--) 4 0 0 0 4
09-09-2019 26.7 (14:40) 19 (06:20) 22.9 -- (--) -- (--) 0 0 0 0 0
08-09-2019 27.4 (15:10) 16 (00:00) 21.7 -- (--) -- (--) 0 0 0 0 0
23-08-2019 29.5 (15:20) 20.2 (00:00) 24.9 -- (--) -- (--) 0 0 0 0 0
06-09-2019 28.7 (15:00) 16.1 (00:00) 22.4 -- (--) -- (--) 0 0 0 0 0
05-09-2019 28.6 (13:30) 18.4 (00:00) 23.5 -- (--) -- (--) 0 0 0 0 0
04-09-2019 28.9 (15:40) 19 (00:00) 23.9 -- (--) -- (--) 0 0 0 0 0
03-09-2019 28.2 (13:10) 17.8 (00:00) 23 -- (--) -- (--) 0 0 0 0 0
02-09-2019 31.3 (16:00) 21.3 (00:00) 26.3 -- (--) -- (--) 0 0 0 0 0
01-09-2019 29 (14:30) 22.7 (00:00) 25.9 -- (--) -- (--) 0 0 0 0 0
31-08-2019 30.3 (16:00) 21 (00:00) 25.6 -- (--) -- (--) 0 0 0 0 0
30-08-2019 30.3 (11:20) 21.6 (00:00) 25.9 -- (--) -- (--) 0 0 0 0 0
29-08-2019 30 (16:10) 20.2 (00:00) 25.1 -- (--) -- (--) 0 0 0 0 0
28-08-2019 29.1 (16:00) 20.3 (00:00) 24.7 -- (--) -- (--) 0 0 0 0 0
26-08-2019 28.9 (12:00) 19.6 (00:00) 24.3 -- (--) -- (--) 0.4 0 0 0 0.4
25-08-2019 29.2 (14:40) 20.9 (00:00) 25.1 -- (--) -- (--) 0 0 0 0 0
24-08-2019 29.2 (15:20) 19.8 (00:00) 24.5 -- (--) -- (--) 0 0 0 0 0

Gráficas

Temp. máximas Temp. mínimas Temp. medias Precipitaciones Rachas de viento máximas Velocidades máximas media en intervalos de 10 minutos

Datos horarios

Fecha y hora oficial Temperatura (ºC) Velocidad del viento (km/h) Dirección del viento Racha (km/h) Dirección de racha Precipitación (mm) Presión (hPa) Tendencia (hPa) Humedad (%)
2019-09-21 23:00:00 21.9 11 Sudeste 26 Este 0 -- -- 80
2019-09-21 22:00:00 22.1 10 Sudeste 27 Este 0 -- -- 81
2019-09-21 21:00:00 22.7 9 Este 19 Este 0 -- -- 82
2019-09-21 20:00:00 23 3 Este 14 Este 0 -- -- 79
2019-09-21 19:00:00 23.4 3 Nordeste 19 Este 0 -- -- 70
2019-09-21 18:00:00 24.6 9 Este 27 Sudeste 0 -- -- 76
2019-09-21 17:00:00 25.6 14 Sudeste 26 Este 0 -- -- 72
2019-09-21 16:00:00 25.1 13 Este 30 Sudeste 0 -- -- 77
2019-09-21 15:00:00 25.9 14 Sudeste 24 Sudeste 0 -- -- 75
2019-09-21 14:00:00 25.9 13 Sudeste 24 Este 0 -- -- 76
2019-09-21 13:00:00 24.1 4 Este 12 Este 0 -- -- 82
2019-09-21 12:00:00 21.1 5 Noroeste 16 Norte 0 -- -- 89
2019-09-21 11:00:00 20.2 4 Norte 10 Noroeste 0.2 -- -- 92
2019-09-21 10:00:00 19.6 7 Norte 18 Norte 0.2 -- -- 91
2019-09-21 09:00:00 19.5 5 Norte 17 Noroeste 1.2 -- -- 88
2019-09-21 08:00:00 20.6 6 Norte 13 Norte 0 -- -- 84
2019-09-21 07:00:00 21 3 Noroeste 10 Nordeste 0 -- -- 81
2019-09-21 06:00:00 21.2 3 Nordeste 13 Nordeste 0 -- -- 79
2019-09-21 05:00:00 21.1 5 Norte 13 Nordeste 0 -- -- 80
2019-09-21 04:00:00 21.2 3 Nordeste 13 Nordeste 0 -- -- 80
2019-09-21 03:00:00 21.2 3 Este 12 Este 0 -- -- 80
2019-09-21 02:00:00 21.2 3 Nordeste 18 Nordeste 0 -- -- 81
2019-09-21 01:00:00 21.5 5 Este 19 Este 0 -- -- 80
2019-09-21 00:00:00 21.6 6 Este 15 Este 0 -- -- 80
2019-09-20 23:00:00 21.9 3 Este 12 Este 0 -- -- 81
2019-09-20 22:00:00 22.3 4 Este 22 Sudeste 0 -- -- 79
2019-09-20 21:00:00 22.8 8 Este 23 Sudeste 0 -- -- 78
2019-09-20 20:00:00 23 10 Este 25 Este 0 -- -- 77
2019-09-20 19:00:00 23.5 12 Sudeste 27 Sudeste 0 -- -- 74
2019-09-20 18:00:00 24.9 10 Este 26 Sudeste 0 -- -- 67
2019-09-20 17:00:00 25.6 14 Este 27 Sudeste 0 -- -- 62
2019-09-20 16:00:00 25.9 15 Sudeste 32 Este 0 -- -- 60
2019-09-20 15:00:00 26.3 15 Sudeste 26 Sudeste 0 -- -- 57
2019-09-20 14:00:00 25.7 13 Sudeste 27 Este 0 -- -- 63
2019-09-20 13:00:00 25.2 14 Sudeste 26 Sudeste 0 -- -- 67
2019-09-20 12:00:00 25.2 11 Este 25 Este 0 -- -- 66
2019-09-20 11:00:00 24.4 9 Este 19 Este 0 -- -- 67
2019-09-20 10:00:00 22.7 4 Este 10 Este 0 -- -- 66
2019-09-20 09:00:00 20.2 3 Este 5 Este 0 -- -- 73
2019-09-20 08:00:00 18.7 0 Calma 5 Este 0 -- -- 80
2019-09-20 07:00:00 18.3 0 Calma 5 Noroeste 0 -- -- 83
2019-09-20 06:00:00 18.4 0 Calma 4 Norte 0 -- -- 84
2019-09-20 05:00:00 18.5 0 Calma 6 Noroeste 0 -- -- 85
2019-09-20 04:00:00 18.8 0 Calma 3 Sudeste 0 -- -- 85
2019-09-20 03:00:00 19.1 0 Calma 4 Nordeste 0 -- -- 83
2019-09-20 02:00:00 19.5 0 Calma 5 Este 0 -- -- 84
2019-09-20 01:00:00 19.9 2 Norte 6 Norte 0 -- -- 83
2019-09-20 00:00:00 20.7 0 Calma 6 Norte 0 -- -- 82
2019-09-19 23:00:00 21.4 0 Calma 7 Nordeste 0 -- -- 80
2019-09-19 22:00:00 22 2 Este 8 Este 0 -- -- 77
2019-09-19 21:00:00 22.6 2 Nordeste 8 Este 0 -- -- 75
2019-09-19 20:00:00 23.4 5 Este 10 Este 0 -- -- 73
2019-09-19 19:00:00 24.1 5 Sudeste 13 Este 0 -- -- 71
2019-09-19 18:00:00 24.4 7 Sudeste 17 Sudeste 0 -- -- 67
2019-09-19 17:00:00 25.9 10 Sudeste 24 Sudeste 0 -- -- 62
2019-09-19 16:00:00 26.1 13 Sudeste 23 Sudeste 0 -- -- 63
2019-09-19 15:00:00 26.7 13 Sudeste 23 Sudeste 0 -- -- 61
2019-09-19 14:00:00 27.2 13 Sudeste 23 Este 0 -- -- 58
2019-09-19 13:00:00 26.4 13 Sudeste 21 Sudeste 0 -- -- 56
2019-09-19 12:00:00 27 7 Sudeste 15 Sudeste 0 -- -- 55
2019-09-19 11:00:00 26.4 6 Sudeste 13 Sudeste 0 -- -- 59
2019-09-19 10:00:00 25.3 5 Noroeste 11 Noroeste 0 -- -- 66
2019-09-19 09:00:00 22.1 0 Calma 5 Este 0 -- -- 77
2019-09-19 08:00:00 20.4 2 Norte 6 Norte 0 -- -- 77
2019-09-19 07:00:00 20.4 4 Norte 7 Norte 0 -- -- 79
2019-09-19 06:00:00 20.5 0 Calma 4 Noroeste 0 -- -- 79
2019-09-19 05:00:00 20.8 0 Calma 5 Noroeste 0 -- -- 73
2019-09-19 04:00:00 21.8 0 Calma 12 Este 0 -- -- 72
2019-09-19 03:00:00 21.8 4 Este 11 Este 0 -- -- 79
2019-09-19 02:00:00 21.8 2 Noroeste 8 Este 0 -- -- 86
2019-09-19 01:00:00 22.1 2 Noroeste 6 Oeste 0 -- -- 87
2019-09-19 00:00:00 22.2 0 Calma 8 Norte 0 -- -- 87
2019-09-18 23:00:00 22.5 4 Noroeste 7 Noroeste 0 -- -- 85
2019-09-18 22:00:00 23.2 0 Calma 10 Este 0 -- -- 83
2019-09-18 21:00:00 24.1 5 Este 13 Sur 0 -- -- 82
2019-09-18 20:00:00 24.5 5 Este 11 Este 0 -- -- 80
2019-09-18 19:00:00 25.6 4 Este 6 Sudeste 0 -- -- 73
2019-09-18 18:00:00 26.1 3 Este 10 Sur 0 -- -- 68
2019-09-18 17:00:00 26.3 7 Sudeste 25 Sudeste 0 -- -- 74
2019-09-18 16:00:00 26.7 13 Sudeste 24 Sudeste 0 -- -- 73
2019-09-18 15:00:00 28.3 13 Sudeste 21 Sudeste 0 -- -- 64
2019-09-18 14:00:00 29.3 10 Sudeste 15 Sudeste 0 -- -- 51
2019-09-18 13:00:00 30 6 Sudeste 11 Este 0 -- -- 50
2019-09-18 12:00:00 28.9 5 Sudeste 10 Sudeste 0 -- -- 51
2019-09-18 11:00:00 27.7 4 Sur 7 Sur 0 -- -- 55
2019-09-18 10:00:00 24.5 5 Noroeste 9 Noroeste 0 -- -- 68
2019-09-18 09:00:00 20.8 3 Noroeste 8 Noroeste 0 -- -- 85
2019-09-18 08:00:00 19.8 3 Norte 7 Norte 0 -- -- 89
2019-09-18 07:00:00 19.7 0 Calma 9 Norte 0 -- -- 89
2019-09-18 06:00:00 19 3 Noroeste 5 Norte 0 -- -- 83
2019-09-18 05:00:00 19.2 3 Noroeste 10 Noroeste 0 -- -- 77
2019-09-18 04:00:00 20.1 0 Calma 7 Sudoeste 0 -- -- 84
2019-09-18 03:00:00 20 2 Este 6 Este 0 -- -- 87
2019-09-18 02:00:00 20.5 0 Calma 5 Nordeste 0 -- -- 85
2019-09-18 01:00:00 21 2 Noroeste 4 Noroeste 0 -- -- 85
2019-09-18 00:00:00 21.7 0 Calma 5 Noroeste 0 -- -- 83
2019-09-17 23:00:00 22.5 3 Noroeste 10 Sudoeste 0 -- -- 82
2019-09-17 22:00:00 22.8 3 Oeste 9 Oeste 0 -- -- 79
2019-09-17 21:00:00 23.2 3 Sur 6 Sudeste 0 -- -- 78
2019-09-15 18:00:00 -- -- -- -- -- -- -- -- --
2019-09-15 17:00:00 -- -- -- -- -- -- -- -- --
2019-09-15 16:00:00 26.8 17 Sudeste 33 Sudeste 0 -- -- 71
2019-09-15 15:00:00 27.6 17 Este 41 Este 0 -- -- 67
2019-09-15 14:00:00 27.4 17 Este 39 Este 0 -- -- 59
2019-09-15 13:00:00 27.9 14 Sudeste 24 Sudeste 0 -- -- 53
2019-09-15 12:00:00 27.5 13 Sudeste 27 Sudeste 0 -- -- 49
2019-09-15 11:00:00 26.2 9 Sudeste 18 Sudeste 0 -- -- 44
2019-09-15 10:00:00 23.1 0 Calma 5 Norte 0 -- -- 54
2019-09-15 09:00:00 20.7 2 Norte 5 Norte 0 -- -- 60
2019-09-15 08:00:00 19.8 0 Calma 9 Norte 0 -- -- 57
2019-09-15 07:00:00 20.6 4 Norte 10 Noroeste 0 -- -- 55
2019-09-15 06:00:00 19.3 3 Norte 6 Norte 0 -- -- 65
2019-09-15 05:00:00 19.7 3 Noroeste 9 Nordeste 0 -- -- 66
2019-09-15 04:00:00 19.4 3 Norte 6 Noroeste 0 -- -- 65
2019-09-15 03:00:00 20.5 3 Noroeste 6 Noroeste 0 -- -- 61
2019-09-15 02:00:00 21 2 Noroeste 5 Este 0 -- -- 67
2019-09-15 01:00:00 21.8 2 Este 4 Este 0 -- -- 64
2019-09-15 00:00:00 22.4 0 Calma 10 Nordeste 0 -- -- 55
2019-09-14 23:00:00 23.2 3 Norte 11 Este 0 -- -- 52
2019-09-14 22:00:00 23.6 2 Nordeste 28 Este 0 -- -- 55
2019-09-14 21:00:00 23.7 7 Este 18 Este 0 -- -- 62
2019-09-14 20:00:00 24.5 7 Este 20 Este 0 -- -- 67
2019-09-14 19:00:00 25.5 8 Este 30 Este 0 -- -- 51
2019-09-14 18:00:00 26.4 13 Este 30 Este 0 -- -- 47
2019-09-14 17:00:00 25.5 15 Sudeste 35 Este 0 -- -- 59
2019-09-14 16:00:00 26.4 15 Sudeste 31 Este 0 -- -- 54
2019-09-14 15:00:00 26.5 13 Este 34 Este 0 -- -- 55
2019-09-14 14:00:00 25.9 12 Este 25 Este 0 -- -- 50
2019-09-14 13:00:00 26.5 9 Sudeste 21 Sudeste 0 -- -- 54
2019-09-14 12:00:00 26.6 10 Sudeste 19 Este 0 -- -- 53
2019-09-14 11:00:00 27 8 Sudeste 13 Este 0 -- -- 46
2019-09-14 10:00:00 25 4 Noroeste 14 Norte 0 -- -- 55
2019-09-14 09:00:00 21.6 6 Noroeste 12 Norte 0 -- -- 61
2019-09-14 08:00:00 19 5 Noroeste 13 Noroeste 0 -- -- 67
2019-09-14 07:00:00 19.1 2 Norte 8 Nordeste 0 -- -- 66
2019-09-14 06:00:00 -- -- -- -- -- -- -- -- --
2019-09-14 05:00:00 -- -- -- -- -- -- -- -- --
2019-09-14 04:00:00 19.5 5 Norte 14 Nordeste 0 -- -- 72
2019-09-14 03:00:00 19.2 3 Norte 11 Norte 0 -- -- 75
2019-09-14 02:00:00 19.6 0 Calma 15 Norte 0 -- -- 78
2019-09-14 01:00:00 19.9 6 Norte 19 Norte 0 -- -- 81
2019-09-14 00:00:00 19.8 7 Norte 22 Norte 1 -- -- 84
2019-09-13 23:00:00 21.5 0 Calma 23 Sudeste 0.8 -- -- 73
2019-09-13 22:00:00 22.9 2 Sudoeste 9 Este 0 -- -- 72
2019-09-13 21:00:00 23.3 5 Este 11 Sudeste 0 -- -- 71
2019-09-13 20:00:00 24.2 0 Calma 10 Sudeste 0 -- -- 63
2019-09-13 19:00:00 25.3 3 Este 13 Sudeste 0 -- -- 56
2019-09-13 18:00:00 26.2 6 Sudeste 18 Sudeste 0 -- -- 54
2019-09-13 17:00:00 26.8 3 Sur 19 Este 0 -- -- 42
2019-09-13 16:00:00 26.3 5 Nordeste 12 Nordeste 0 -- -- 47
2019-09-13 15:00:00 24.8 6 Nordeste 31 Este 0 -- -- 54
2019-09-13 14:00:00 24.6 11 Este 36 Este 0 -- -- 60
2019-09-13 13:00:00 23.1 7 Este 35 Este 0 -- -- 68
2019-09-13 12:00:00 23.7 11 Este 45 Este 0 -- -- 63
2019-09-13 11:00:00 25.3 11 Sudeste 24 Este 0 -- -- 43
2019-09-13 10:00:00 24.8 7 Este 23 Este 0 -- -- 42
2019-09-13 09:00:00 22.7 4 Norte 19 Norte 0 -- -- 48
2019-09-13 08:00:00 20.8 5 Norte 21 Norte 0 -- -- 50
2019-09-13 07:00:00 20 3 Norte 10 Sudeste 0 -- -- 54
2019-09-13 06:00:00 18.5 0 Calma 8 Norte 0 -- -- 63
2019-09-13 05:00:00 18.6 0 Calma 6 Norte 0 -- -- 67
2019-09-13 04:00:00 19.1 0 Calma 10 Norte 0 -- -- 72
2019-09-13 03:00:00 19.6 3 Este 13 Este 0 -- -- 76
2019-09-13 02:00:00 19.5 4 Este 10 Este 0 -- -- 77
2019-09-13 01:00:00 20.1 2 Noroeste 11 Norte 0 -- -- 77
2019-09-13 00:00:00 20.4 4 Noroeste 8 Noroeste 0 -- -- 78
2019-09-12 23:00:00 21.2 2 Noroeste 6 Noroeste 0 -- -- 74
2019-09-12 22:00:00 22.9 3 Noroeste 10 Sudeste 0 -- -- 67
2019-09-12 21:00:00 23.9 5 Sudeste 12 Sudeste 0 -- -- 62
2019-09-12 20:00:00 24.2 4 Sudeste 13 Este 0 -- -- 62
2019-09-12 19:00:00 25.1 6 Este 16 Este 0 -- -- 58
2019-09-12 18:00:00 26 9 Sudeste 19 Sudeste 0 -- -- 57
2019-09-12 17:00:00 26.6 8 Este 23 Sudeste 0 -- -- 57
2019-09-12 16:00:00 26.9 11 Sudeste 21 Sudeste 0 -- -- 52
2019-09-12 15:00:00 27.4 11 Sudeste 26 Sudeste 0 -- -- 49
2019-09-12 14:00:00 27.3 9 Sur 19 Sudeste 0 -- -- 48
2019-09-12 13:00:00 28.7 7 Sudeste 14 Este 0 -- -- 43
2019-09-12 12:00:00 27.2 7 Sudeste 14 Sudeste 0 -- -- 45
2019-09-12 11:00:00 26.9 5 Sudeste 13 Norte 0 -- -- 44
2019-09-12 10:00:00 24.1 5 Norte 19 Noroeste 0 -- -- 59
2019-09-12 09:00:00 21.5 8 Norte 20 Norte 0 -- -- 67
2019-09-12 08:00:00 20.3 6 Norte 15 Norte 0 -- -- 71
2019-09-12 07:00:00 21.1 5 Norte 14 Norte 0 -- -- 69
2019-09-12 06:00:00 21.1 5 Norte 16 Norte 0 -- -- 69
2019-09-12 05:00:00 20.9 5 Norte 17 Nordeste 0 -- -- 70
2019-09-12 04:00:00 20.6 4 Norte 16 Nordeste 0 -- -- 70
2019-09-12 03:00:00 20.9 5 Norte 16 Nordeste 0 -- -- 68
2019-09-12 02:00:00 21.2 8 Norte 22 Nordeste 0 -- -- 64
2019-09-12 01:00:00 20.8 8 Norte 18 Norte 0 -- -- 63
2019-09-12 00:00:00 20.3 5 Noroeste 11 Norte 0 -- -- 67
2019-09-11 23:00:00 20.5 0 Calma 9 Norte 0 -- -- 69
2019-09-11 22:00:00 21.3 5 Norte 11 Noroeste 0 -- -- 70
2019-09-11 21:00:00 22.8 3 Este 19 Este 0 -- -- 66
2019-09-11 20:00:00 24 6 Este 25 Este 0 -- -- 61
2019-09-11 19:00:00 24.9 13 Este 35 Este 0 -- -- 59
2019-09-11 18:00:00 25.7 14 Este 32 Este 0 -- -- 58
2019-09-11 17:00:00 26.6 12 Este 36 Este 0 -- -- 56
2019-09-11 16:00:00 26.3 14 Sudeste 30 Este 0 -- -- 55
2019-09-11 15:00:00 26.1 13 Este 38 Este 0 -- -- 53
2019-09-11 14:00:00 25.5 9 Nordeste 33 Este 0 -- -- 56
2019-09-11 13:00:00 24.1 9 Este 29 Nordeste 0 -- -- 63
2019-09-11 12:00:00 20.3 6 Norte 21 Noroeste 0.2 -- -- 86
2019-09-11 11:00:00 17.4 2 Norte 21 Nordeste 5.6 -- -- 92
2019-09-11 10:00:00 17.1 7 Norte 25 Norte 3.2 -- -- 88
2019-09-11 09:00:00 17 8 Norte 24 Norte 0.8 -- -- 86
2019-09-11 08:00:00 16.4 8 Norte 24 Norte 1.4 -- -- 84
2019-09-11 07:00:00 16.8 8 Norte 32 Nordeste 0.6 -- -- 80
2019-09-11 06:00:00 17.9 10 Norte 29 Nordeste 0 -- -- 65
2019-09-11 05:00:00 16.6 10 Norte 27 Norte 0 -- -- 76
2019-09-11 04:00:00 14.7 8 Noroeste 15 Norte 2 -- -- 92
2019-09-11 03:00:00 14.8 5 Noroeste 11 Norte 1.4 -- -- 91
2019-09-11 02:00:00 14.8 3 Norte 9 Norte 0 -- -- 91
2019-09-11 01:00:00 15 0 Calma 5 Noroeste 0.8 -- -- 91
2019-09-11 00:00:00 14.8 0 Calma 13 Nordeste 0.8 -- -- 89
2019-09-10 23:00:00 14.9 7 Norte 17 Norte 3 -- -- 85
2019-09-10 22:00:00 16.9 3 Norte 10 Norte 0.2 -- -- 76
2019-09-10 21:00:00 18.1 3 Norte 6 Noroeste 0 -- -- 67
2019-09-10 20:00:00 18.7 2 Sudeste 8 Nordeste 0 -- -- 58
2019-09-10 19:00:00 18.6 3 Norte 24 Este 0 -- -- 61
2019-09-10 18:00:00 19.1 8 Este 25 Este 0 -- -- 58
2019-09-10 17:00:00 19.1 7 Este 30 Este 0 -- -- 59
2019-09-10 16:00:00 20.3 12 Sudeste 22 Este 0 -- -- 57
2019-09-10 15:00:00 19.2 4 Nordeste 18 Este 0 -- -- 60
2019-09-10 14:00:00 18.6 4 Este 10 Este 0 -- -- 63
2019-09-10 13:00:00 18.7 6 Noroeste 13 Norte 0 -- -- 59
2019-09-10 12:00:00 18.7 8 Noroeste 32 Norte 0 -- -- 56
2019-09-10 11:00:00 19.6 10 Noroeste 23 Noroeste 0 -- -- 53
2019-09-10 10:00:00 20 5 Noroeste 13 Noroeste 0 -- -- 52
2019-09-10 09:00:00 20.1 3 Oeste 12 Oeste 0 -- -- 54
2019-09-10 08:00:00 19.9 2 Noroeste 19 Noroeste 0 -- -- 55
2019-09-10 07:00:00 20.2 9 Noroeste 28 Noroeste 0 -- -- 51
2019-09-10 06:00:00 20.7 5 Noroeste 18 Noroeste 0 -- -- 56
2019-09-10 05:00:00 21.3 6 Noroeste 21 Noroeste 0 -- -- 67
2019-09-10 04:00:00 21.9 4 Noroeste 11 Noroeste 0 -- -- 85
2019-09-10 03:00:00 22.6 5 Norte 11 Norte 0 -- -- 83
2019-09-10 02:00:00 23.8 2 Noroeste 12 Sur 0 -- -- 81
2019-09-10 01:00:00 24.3 4 Sur 16 Sudoeste 0 -- -- 78
2019-09-10 00:00:00 24.4 5 Sudeste 14 Sur 0 -- -- 78
2019-09-09 23:00:00 23.6 3 Este 10 Sudeste 0 -- -- 80
2019-09-09 22:00:00 23.6 0 Calma 6 Sudoeste 0 -- -- 77
2019-09-09 21:00:00 23.8 0 Calma 10 Sudeste 0 -- -- 76
2019-09-09 20:00:00 24.2 5 Sur 13 Sudeste 0 -- -- 73
2019-09-09 19:00:00 24.6 6 Sudeste 17 Sudeste 0 -- -- 71
2019-09-09 18:00:00 25 9 Sudeste 20 Sudeste 0 -- -- 70
2019-09-09 17:00:00 25.8 12 Sudeste 24 Sudeste 0 -- -- 65
2019-09-09 16:00:00 25.9 11 Sudeste 21 Este 0 -- -- 62
2019-09-09 15:00:00 26.3 12 Sudeste 24 Sudeste 0 -- -- 58
2019-09-09 14:00:00 26.2 12 Sudeste 22 Sudeste 0 -- -- 58
2019-09-09 13:00:00 24.4 9 Sudeste 16 Este 0 -- -- 62
2019-09-09 12:00:00 24.3 4 Este 10 Sudeste 0 -- -- 64
2019-09-09 11:00:00 22.9 2 Norte 9 Nordeste 0 -- -- 67
2019-09-09 10:00:00 21.5 2 Oeste 14 Norte 0 -- -- 63
2019-09-09 09:00:00 20.4 5 Norte 12 Norte 0 -- -- 65
2019-09-09 08:00:00 19.6 5 Norte 10 Noroeste 0 -- -- 66
2019-09-09 07:00:00 19 3 Norte 8 Noroeste 0 -- -- 72
2019-09-09 06:00:00 19.3 2 Norte 9 Norte 0 -- -- 78
2019-09-09 05:00:00 19.6 5 Noroeste 9 Noroeste 0 -- -- 83
2019-09-09 04:00:00 19.7 3 Norte 8 Norte 0 -- -- 84
2019-09-09 03:00:00 20.1 2 Noroeste 5 Nordeste 0 -- -- 82
2019-09-09 02:00:00 21 0 Calma 6 Este 0 -- -- 77
2019-09-09 01:00:00 22.2 3 Este 8 Este 0 -- -- 76
2019-09-09 00:00:00 23.6 0 Calma 14 Sudoeste 0 -- -- 77
2019-09-08 23:00:00 24 5 Sudoeste 13 Sudoeste 0 -- -- 75
2019-09-08 22:00:00 24 3 Sur 14 Este 0 -- -- 74
2019-09-08 21:00:00 24.1 5 Sudoeste 15 Oeste 0 -- -- 73
2019-09-08 20:00:00 24.1 6 Sudoeste 19 Sudeste 0 -- -- 72
2019-09-08 19:00:00 24.7 8 Sudoeste 20 Oeste 0 -- -- 64
2019-09-08 18:00:00 25.8 8 Sudoeste 21 Sur 0 -- -- 55
2019-09-08 17:00:00 26.9 8 Sur 31 Este 0 -- -- 46
2019-09-08 16:00:00 27 12 Sudeste 22 Sur 0 -- -- 43
2019-09-08 15:00:00 27.3 8 Sur 18 Sudeste 0 -- -- 39
2019-09-08 14:00:00 26.1 10 Sur 24 Este 0 -- -- 44
2019-09-08 13:00:00 25.5 14 Sudeste 24 Sudeste 0 -- -- 45
2019-09-08 12:00:00 26.2 6 Noroeste 15 Noroeste 0 -- -- 41
2019-09-08 11:00:00 24 5 Noroeste 11 Norte 0 -- -- 46
2019-09-08 10:00:00 21.6 4 Noroeste 13 Noroeste 0 -- -- 53
2019-09-08 09:00:00 19 8 Noroeste 13 Noroeste 0 -- -- 58
2019-09-08 08:00:00 16.7 0 Calma 6 Nordeste 0 -- -- 66
2019-09-08 07:00:00 16.9 4 Norte 12 Norte 0 -- -- 66
2019-09-08 06:00:00 16.7 4 Norte 17 Norte 0 -- -- 71
2019-09-08 05:00:00 16.4 5 Noroeste 10 Norte 0 -- -- 79
2019-09-08 04:00:00 17.3 3 Noroeste 8 Noroeste 0 -- -- 76
2019-09-08 03:00:00 18.2 4 Noroeste 6 Noroeste 0 -- -- 72
2019-09-08 02:00:00 18.8 4 Noroeste 7 Norte 0 -- -- 71
2019-09-08 01:00:00 19.5 4 Noroeste 9 Noroeste 0 -- -- 69
2019-09-08 00:00:00 19.9 4 Noroeste 6 Noroeste 0 -- -- 67
2019-09-07 23:00:00 20.9 3 Norte 9 Sur 0 -- -- 63
2019-09-07 22:00:00 22.4 4 Oeste 9 Oeste 0 -- -- 59
2019-09-07 21:00:00 22.9 3 Oeste 12 Oeste 0 -- -- 54
2019-09-07 20:00:00 23.8 5 Sudoeste 16 Oeste 0 -- -- 47
2019-09-07 19:00:00 25 6 Sudoeste 17 Este 0 -- -- 42
2019-09-07 18:00:00 26.2 9 Sudeste 18 Este 0 -- -- 38
2019-09-07 17:00:00 26.4 12 Sudeste 22 Sudeste 0 -- -- 35
2019-09-07 16:00:00 26.5 12 Sudeste 23 Sudeste 0 -- -- 37
2019-09-07 15:00:00 26.2 11 Sudeste 23 Sudeste 0 -- -- 35
2019-09-07 14:00:00 25.6 12 Sudeste 21 Este 0 -- -- 36
2019-09-07 13:00:00 25.4 8 Sudoeste 20 Sudoeste 0 -- -- 36
2019-09-07 12:00:00 25.6 5 Noroeste 19 Norte 0 -- -- 36
2019-09-07 11:00:00 23.6 7 Norte 15 Noroeste 0 -- -- 40
2019-09-07 10:00:00 20.9 7 Norte 16 Noroeste 0 -- -- 48
2019-09-07 09:00:00 18 7 Noroeste 14 Noroeste 0 -- -- 56
2019-09-07 08:00:00 15.8 0 Calma 13 Norte 0 -- -- 61
2019-09-07 07:00:00 15.8 6 Noroeste 16 Noroeste 0 -- -- 61
2019-09-07 06:00:00 16.5 5 Norte 15 Norte 0 -- -- 58
2019-09-07 05:00:00 16.5 2 Nordeste 16 Norte 0 -- -- 59
2019-09-07 04:00:00 16.7 3 Noroeste 10 Noroeste 0 -- -- 61
2019-09-07 03:00:00 18 4 Noroeste 13 Noroeste 0 -- -- 56
2019-09-07 02:00:00 17.7 3 Noroeste 8 Noroeste 0 -- -- 74
2019-09-07 01:00:00 18.3 2 Noroeste 8 Noroeste 0 -- -- 72
2019-09-07 00:00:00 20.8 0 Calma 13 Oeste 0 -- -- 71
2019-09-06 23:00:00 22.2 3 Noroeste 14 Oeste 0 -- -- 74
2019-09-06 22:00:00 22.7 4 Oeste 14 Oeste 0 -- -- 70
2019-09-06 21:00:00 23.2 5 Oeste 23 Oeste 0 -- -- 63
2019-09-06 20:00:00 24.1 7 Sur 22 Oeste 0 -- -- 56
2019-09-06 19:00:00 25 9 Sudoeste 28 Oeste 0 -- -- 49
2019-09-06 18:00:00 26.3 13 Sudoeste 26 Oeste 0 -- -- 45
2019-09-06 17:00:00 27.3 10 Sur 25 Sudeste 0 -- -- 40
2019-09-06 16:00:00 27 10 Sur 24 Sur 0 -- -- 40
2019-09-06 15:00:00 28.7 5 Oeste 17 Sudoeste 0 -- -- 29
2019-09-06 14:00:00 27.4 6 Oeste 22 Noroeste 0 -- -- 32
2019-09-06 13:00:00 26.5 5 Oeste 12 Sudoeste 0 -- -- 33
2019-09-06 12:00:00 24.8 3 Oeste 12 Noroeste 0 -- -- 38
2019-09-06 11:00:00 23.1 4 Oeste 10 Oeste 0 -- -- 44
2019-09-06 10:00:00 21 4 Noroeste 14 Noroeste 0 -- -- 50
2019-09-06 09:00:00 18.3 5 Noroeste 13 Noroeste 0 -- -- 57
2019-09-06 08:00:00 16.2 6 Norte 13 Norte 0 -- -- 61
2019-09-06 07:00:00 16.4 7 Norte 14 Noroeste 0 -- -- 60
2019-09-06 06:00:00 16.7 5 Noroeste 15 Norte 0 -- -- 59
2019-09-06 05:00:00 17.5 5 Norte 13 Norte 0 -- -- 56
2019-09-06 04:00:00 18.4 6 Noroeste 13 Norte 0 -- -- 54
2019-09-06 03:00:00 19.1 3 Noroeste 16 Noroeste 0 -- -- 52
2019-09-06 02:00:00 20.1 8 Noroeste 21 Noroeste 0 -- -- 48
2019-09-06 01:00:00 21 9 Noroeste 19 Noroeste 0 -- -- 46
2019-09-06 00:00:00 22.2 8 Noroeste 22 Noroeste 0 -- -- 42
2019-09-05 23:00:00 23 8 Noroeste 17 Noroeste 0 -- -- 42
2019-09-05 22:00:00 23.5 0 Calma 9 Nordeste 0 -- -- 66
2019-09-05 21:00:00 23.9 3 Nordeste 16 Nordeste 0 -- -- 61
2019-09-05 20:00:00 25.1 8 Este 29 Este 0 -- -- 59
2019-09-05 19:00:00 26.1 12 Sudeste 27 Sudeste 0 -- -- 56
2019-09-05 18:00:00 27.1 14 Este 28 Este 0 -- -- 53
2019-09-05 17:00:00 27.8 14 Sudeste 23 Sudeste 0 -- -- 51
2019-09-05 16:00:00 28.2 13 Sudeste 23 Sudeste 0 -- -- 47
2019-09-05 15:00:00 28 14 Sudeste 23 Sudeste 0 -- -- 45
2019-09-05 14:00:00 28.2 12 Sudeste 21 Sudeste 0 -- -- 43
2019-09-05 13:00:00 27.8 5 Sudoeste 14 Noroeste 0 -- -- 42
2019-09-05 12:00:00 26.7 4 Noroeste 11 Noroeste 0 -- -- 42
2019-09-05 11:00:00 25 6 Oeste 12 Noroeste 0 -- -- 47
2019-09-05 10:00:00 23 5 Noroeste 12 Norte 0 -- -- 52
2019-09-05 09:00:00 21 4 Noroeste 11 Noroeste 0 -- -- 57
2019-09-05 08:00:00 18.5 4 Noroeste 14 Norte 0 -- -- 65
2019-09-05 07:00:00 18.4 5 Noroeste 11 Noroeste 0 -- -- 65
2019-09-05 06:00:00 19.1 2 Noroeste 11 Noroeste 0 -- -- 64
2019-09-05 05:00:00 20.6 7 Noroeste 16 Norte 0 -- -- 57
2019-09-05 04:00:00 21.2 7 Noroeste 16 Noroeste 0 -- -- 57
2019-09-05 03:00:00 21.6 5 Noroeste 14 Noroeste 0 -- -- 58
2019-09-05 02:00:00 22.4 4 Noroeste 15 Oeste 0 -- -- 63
2019-09-05 01:00:00 24 4 Oeste 12 Oeste 0 -- -- 82
2019-09-05 00:00:00 24.3 3 Sudoeste 11 Oeste 0 -- -- 84
2019-09-04 23:00:00 24.6 4 Oeste 12 Sur 0 -- -- 84
2019-09-04 22:00:00 24.9 3 Oeste 12 Oeste 0 -- -- 82
2019-09-04 21:00:00 25.2 4 Sudoeste 15 Sudoeste 0 -- -- 81
2019-09-04 20:00:00 25.7 6 Sudoeste 16 Sur 0 -- -- 77
2019-09-04 19:00:00 26.4 7 Sudoeste 20 Noroeste 0 -- -- 74
2019-09-04 18:00:00 27.6 7 Sudoeste 21 Oeste 0 -- -- 69
2019-09-04 17:00:00 28.8 9 Sudoeste 21 Sudoeste 0 -- -- 66
2019-09-04 16:00:00 28.6 10 Sudoeste 21 Sudoeste 0 -- -- 66
2019-09-04 15:00:00 28.1 10 Sudeste 22 Sudeste 0 -- -- 66
2019-09-04 14:00:00 27.9 12 Sudeste 25 Este 0 -- -- 66
2019-09-04 13:00:00 27.9 10 Sur 22 Sudeste 0 -- -- 67
2019-09-04 12:00:00 26.9 8 Sudeste 17 Sudeste 0 -- -- 65
2019-09-04 11:00:00 26.6 6 Sudoeste 14 Sudeste 0 -- -- 66
2019-09-04 10:00:00 25.5 4 Oeste 10 Noroeste 0 -- -- 65
2019-09-04 09:00:00 22.7 4 Noroeste 9 Noroeste 0 -- -- 62
2019-09-04 08:00:00 19.1 4 Noroeste 9 Nordeste 0 -- -- 74
2019-09-04 07:00:00 19.4 4 Norte 10 Norte 0 -- -- 74
2019-09-04 06:00:00 19.3 3 Norte 8 Norte 0 -- -- 73
2019-09-04 05:00:00 19.7 5 Noroeste 9 Noroeste 0 -- -- 69
2019-09-04 04:00:00 19.4 2 Norte 11 Noroeste 0 -- -- 72
2019-09-04 03:00:00 19 4 Noroeste 5 Noroeste 0 -- -- 80
2019-09-04 02:00:00 19.8 2 Noroeste 5 Norte 0 -- -- 76
2019-09-04 01:00:00 20.8 0 Calma 3 Noroeste 0 -- -- 76
2019-09-04 00:00:00 21.6 2 Noroeste 5 Noroeste 0 -- -- 74
2019-09-03 23:00:00 23 2 Noroeste 6 Oeste 0 -- -- 70
2019-09-03 22:00:00 23.8 3 Oeste 8 Sudoeste 0 -- -- 66
2019-09-03 21:00:00 24.5 3 Oeste 10 Este 0 -- -- 62
2019-09-03 20:00:00 25.6 4 Sur 14 Sudeste 0 -- -- 54
2019-09-03 19:00:00 26.4 6 Sudeste 15 Sudeste 0 -- -- 51
2019-09-03 18:00:00 27.3 8 Sur 17 Sudeste 0 -- -- 46
2019-09-03 17:00:00 27.7 10 Sudeste 23 Este 0 -- -- 44
2019-09-03 16:00:00 27.8 11 Sudeste 22 Sudeste 0 -- -- 43
2019-09-03 15:00:00 28 10 Sudeste 22 Sudeste 0 -- -- 39
2019-09-03 14:00:00 27.8 12 Sudeste 21 Sudeste 0 -- -- 40
2019-09-03 13:00:00 28.1 8 Sudoeste 17 Sudeste 0 -- -- 38
2019-09-03 12:00:00 27.9 4 Sudoeste 10 Noroeste 0 -- -- 37
2019-09-03 11:00:00 25.3 4 Noroeste 9 Norte 0 -- -- 45
2019-09-03 10:00:00 23.4 3 Noroeste 9 Norte 0 -- -- 47
2019-09-03 09:00:00 20.8 4 Norte 15 Norte 0 -- -- 55
2019-09-03 08:00:00 18.7 6 Noroeste 17 Noroeste 0 -- -- 60
2019-09-03 07:00:00 18.4 6 Norte 14 Norte 0 -- -- 60
2019-09-03 06:00:00 18 3 Norte 11 Noroeste 0 -- -- 65
2019-09-03 05:00:00 18.5 5 Noroeste 8 Norte 0 -- -- 68
2019-09-03 04:00:00 19.5 0 Calma 6 Noroeste 0 -- -- 60
2019-09-03 03:00:00 20.1 3 Noroeste 6 Noroeste 0 -- -- 62
2019-09-03 02:00:00 21.3 3 Noroeste 13 Norte 0 -- -- 77
2019-09-03 01:00:00 21.4 5 Norte 9 Norte 0 -- -- 78
2019-09-03 00:00:00 22.2 3 Noroeste 10 Noroeste 0 -- -- 70
2019-09-02 23:00:00 24 4 Noroeste 19 Sudoeste 0 -- -- 72
2019-09-02 22:00:00 24.9 7 Oeste 24 Oeste 0 -- -- 71
2019-09-02 21:00:00 25.3 6 Oeste 24 Oeste 0 -- -- 65
2019-09-02 20:00:00 26.4 9 Sudoeste 26 Oeste 0 -- -- 58
2019-09-02 19:00:00 29.7 6 Oeste 23 Oeste 0 -- -- 33
2019-09-02 18:00:00 30.8 9 Oeste 29 Oeste 0 -- -- 32
2019-09-02 17:00:00 30.2 10 Sudoeste 24 Sudoeste 0 -- -- 35
2019-09-02 16:00:00 31.3 9 Oeste 25 Noroeste 0 -- -- 34
2019-09-02 15:00:00 30.6 8 Oeste 21 Sudoeste 0 -- -- 36
2019-09-02 14:00:00 29.8 9 Oeste 20 Oeste 0 -- -- 37
2019-09-02 13:00:00 28.7 8 Oeste 22 Noroeste 0 -- -- 41
2019-09-02 12:00:00 27.8 6 Oeste 19 Noroeste 0 -- -- 44
2019-09-02 11:00:00 25.7 6 Noroeste 21 Noroeste 0 -- -- 50
2019-09-02 10:00:00 23.2 4 Noroeste 20 Noroeste 0 -- -- 58
2019-09-02 09:00:00 21.5 8 Noroeste 24 Noroeste 0 -- -- 63
2019-09-02 08:00:00 21.4 8 Noroeste 33 Oeste 0 -- -- 65
2019-09-02 07:00:00 21.7 6 Noroeste 24 Noroeste 0 -- -- 65
2019-09-02 06:00:00 22 3 Noroeste 22 Noroeste 0 -- -- 65
2019-09-02 05:00:00 22.6 9 Noroeste 27 Noroeste 0 -- -- 66
2019-09-02 04:00:00 23.9 2 Este 10 Este 0 -- -- 80
2019-09-02 03:00:00 23.8 0 Calma 12 Noroeste 0 -- -- 77
2019-09-02 02:00:00 25 2 Noroeste 10 Noroeste 0 -- -- 83
2019-09-02 01:00:00 25.5 3 Este 11 Sudeste 0 -- -- 81
2019-09-02 00:00:00 25.8 5 Este 13 Este 0 -- -- 82
2019-09-01 23:00:00 25.9 3 Sudeste 7 Este 0 -- -- 80
2019-09-01 22:00:00 26.2 3 Este 9 Este 0 -- -- 79
2019-09-01 21:00:00 26.5 3 Sudoeste 10 Sudeste 0 -- -- 77
2019-09-01 20:00:00 26.8 5 Sudeste 15 Este 0 -- -- 77
2019-09-01 19:00:00 27.5 8 Sudeste 17 Este 0 -- -- 74
2019-09-01 18:00:00 28.1 12 Sudeste 22 Sudeste 0 -- -- 68
2019-09-01 17:00:00 28.3 12 Sudeste 19 Sudeste 0 -- -- 72
2019-09-01 16:00:00 28.7 12 Sudeste 19 Sudeste 0 -- -- 71
2019-09-01 15:00:00 28.9 10 Sudeste 19 Sudeste 0 -- -- 70
2019-09-01 14:00:00 28.8 9 Sudeste 19 Sudeste 0 -- -- 70
2019-09-01 13:00:00 28.5 10 Sudeste 16 Sudeste 0 -- -- 69
2019-09-01 12:00:00 27.3 4 Sudeste 9 Sudeste 0 -- -- 73
2019-09-01 11:00:00 25.8 2 Nordeste 6 Noroeste 0 -- -- 70
2019-09-01 10:00:00 25.3 2 Este 6 Este 0 -- -- 71
2019-09-01 09:00:00 24.6 3 Este 5 Norte 0 -- -- 83
2019-09-01 08:00:00 22.9 3 Noroeste 5 Noroeste 0 -- -- 86
2019-09-01 07:00:00 22.8 2 Este 4 Sudeste 0 -- -- 86
2019-09-01 06:00:00 22.8 0 Calma 5 Noroeste 0 -- -- 85
2019-09-01 05:00:00 22.9 0 Calma 4 Este 0 -- -- 84
2019-09-01 04:00:00 23 0 Calma 5 Norte 0 -- -- 88
2019-09-01 03:00:00 23.3 0 Calma 6 Noroeste 0 -- -- 88
2019-09-01 02:00:00 23.7 0 Calma 3 Noroeste 0 -- -- 88
2019-09-01 01:00:00 24.3 0 Calma 5 Noroeste 0 -- -- 86
2019-09-01 00:00:00 24.8 0 Calma 4 Noroeste 0 -- -- 85
2019-08-31 23:00:00 25.7 2 Este 6 Sudeste 0 -- -- 82
2019-08-31 22:00:00 26.3 2 Sudeste 7 Sur 0 -- -- 76
2019-08-31 21:00:00 26.8 2 Oeste 18 Sudeste 0 -- -- 77
2019-08-31 20:00:00 27.7 6 Sur 12 Sudoeste 0 -- -- 70
2019-08-31 19:00:00 27.4 5 Este 15 Este 0 -- -- 74
2019-08-31 18:00:00 28.3 3 Sudoeste 19 Sur 0 -- -- 64
2019-08-31 17:00:00 30 7 Sur 19 Este 0 -- -- 65
2019-08-31 16:00:00 30.3 6 Sur 23 Este 0 -- -- 59
2019-08-31 15:00:00 29.1 10 Sudeste 20 Sudeste 0 -- -- 67
2019-08-31 14:00:00 29.1 10 Sudeste 21 Sudeste 0 -- -- 67
2019-08-31 13:00:00 29 8 Sudeste 16 Sudeste 0 -- -- 68
2019-08-31 12:00:00 29.1 5 Sur 10 Sur 0 -- -- 61
2019-08-31 11:00:00 28.2 6 Sudeste 12 Sudeste 0 -- -- 71
2019-08-31 10:00:00 27.2 4 Sudoeste 8 Noroeste 0 -- -- 71
2019-08-31 09:00:00 24.1 5 Noroeste 9 Noroeste 0 -- -- 62
2019-08-31 08:00:00 21.4 0 Calma 4 Este 0 -- -- 74
2019-08-31 07:00:00 21.1 0 Calma 5 Noroeste 0 -- -- 76
2019-08-31 06:00:00 21.1 3 Noroeste 7 Norte 0 -- -- 75
2019-08-31 05:00:00 21.6 4 Noroeste 10 Norte 0 -- -- 73
2019-08-31 04:00:00 21.6 3 Noroeste 6 Noroeste 0 -- -- 79
2019-08-31 03:00:00 22.5 2 Noroeste 7 Noroeste 0 -- -- 85
2019-08-31 02:00:00 23.7 2 Noroeste 4 Noroeste 0 -- -- 88
2019-08-31 01:00:00 24 0 Calma 8 Noroeste 0 -- -- 86
2019-08-31 00:00:00 24.5 0 Calma 4 Noroeste 0 -- -- 85
2019-08-30 23:00:00 25.1 0 Calma 4 Noroeste 0 -- -- 82
2019-08-30 22:00:00 25.8 2 Oeste 9 Oeste 0 -- -- 79
2019-08-30 21:00:00 26.5 4 Oeste 13 Oeste 0 -- -- 75
2019-08-30 20:00:00 27.3 5 Sudoeste 18 Sudoeste 0 -- -- 73
2019-08-30 19:00:00 28.3 7 Sudoeste 17 Este 0 -- -- 66
2019-08-30 18:00:00 29.4 7 Sur 18 Sudeste 0 -- -- 62
2019-08-30 17:00:00 30 8 Sudoeste 19 Sudeste 0 -- -- 60
2019-08-30 16:00:00 30.1 9 Sur 17 Sudeste 0 -- -- 60
2019-08-30 15:00:00 29.8 8 Sur 15 Sudoeste 0 -- -- 59
2019-08-30 14:00:00 29.5 9 Sudeste 17 Sudoeste 0 -- -- 65
2019-08-30 13:00:00 29.4 7 Sur 18 Sudeste 0 -- -- 62
2019-08-30 12:00:00 29.7 7 Sudoeste 12 Oeste 0 -- -- 57
2019-08-30 11:00:00 29.7 4 Sudoeste 9 Noroeste 0 -- -- 52
2019-08-30 10:00:00 27.5 5 Noroeste 12 Noroeste 0 -- -- 55
2019-08-30 09:00:00 24.4 6 Norte 12 Norte 0 -- -- 61
2019-08-30 08:00:00 22 3 Norte 11 Nordeste 0 -- -- 70
2019-08-30 07:00:00 21.8 5 Noroeste 12 Norte 0 -- -- 75
2019-08-30 06:00:00 21.7 5 Norte 10 Norte 0 -- -- 76
2019-08-30 05:00:00 21.8 3 Norte 9 Noroeste 0 -- -- 80
2019-08-30 04:00:00 22.3 4 Noroeste 8 Noroeste 0 -- -- 87
2019-08-30 03:00:00 23 3 Noroeste 7 Noroeste 0 -- -- 87
2019-08-30 02:00:00 23.3 0 Calma 6 Noroeste 0 -- -- 86
2019-08-30 01:00:00 24.1 0 Calma 5 Norte 0 -- -- 85
2019-08-30 00:00:00 25.1 0 Calma 10 Sudoeste 0 -- -- 81
2019-08-29 23:00:00 25.5 3 Sudoeste 8 Oeste 0 -- -- 79
2019-08-29 22:00:00 25.5 3 Oeste 8 Oeste 0 -- -- 80
2019-08-29 21:00:00 26 3 Sudoeste 11 Oeste 0 -- -- 75
2019-08-29 20:00:00 26.7 5 Sudoeste 12 Oeste 0 -- -- 72
2019-08-29 19:00:00 27.2 5 Sudoeste 16 Sudeste 0 -- -- 71
2019-08-29 18:00:00 28.4 6 Sudoeste 17 Sudoeste 0 -- -- 65
2019-08-29 17:00:00 29.4 8 Sur 19 Sur 0 -- -- 62
2019-08-29 16:00:00 29.7 8 Sur 18 Sur 0 -- -- 62
2019-08-29 15:00:00 29.1 8 Sur 21 Sudeste 0 -- -- 64
2019-08-29 14:00:00 29.1 9 Sur 17 Sudeste 0 -- -- 61
2019-08-29 13:00:00 29.2 7 Sudeste 17 Sudeste 0 -- -- 60
2019-08-29 12:00:00 28.2 8 Sudeste 15 Este 0 -- -- 60
2019-08-29 11:00:00 27.9 6 Sudeste 10 Sudeste 0 -- -- 60
2019-08-29 10:00:00 26.4 2 Sudeste 6 Este 0 -- -- 62
2019-08-29 09:00:00 23.4 2 Sudeste 4 Este 0 -- -- 73
2019-08-29 08:00:00 20.4 2 Este 6 Norte 0 -- -- 79
2019-08-29 07:00:00 20.3 0 Calma 8 Norte 0 -- -- 80
2019-08-29 06:00:00 20.4 3 Noroeste 7 Noroeste 0 -- -- 85
2019-08-29 05:00:00 20.7 5 Noroeste 11 Noroeste 0 -- -- 86
2019-08-29 04:00:00 21.1 4 Noroeste 6 Noroeste 0 -- -- 87
2019-08-29 03:00:00 21.5 3 Noroeste 7 Norte 0 -- -- 86
2019-08-29 02:00:00 22.2 4 Noroeste 7 Norte 0 -- -- 84
2019-08-29 01:00:00 22.6 2 Noroeste 4 Noroeste 0 -- -- 83
2019-08-29 00:00:00 23.3 0 Calma 5 Oeste 0 -- -- 80
2019-08-28 23:00:00 24.4 3 Oeste 9 Sudoeste 0 -- -- 76
2019-08-28 22:00:00 24.9 3 Oeste 8 Sudoeste 0 -- -- 73
2019-08-28 21:00:00 25.6 5 Oeste 13 Oeste 0 -- -- 68
2019-08-28 20:00:00 26.4 5 Sudoeste 14 Oeste 0 -- -- 65
2019-08-28 19:00:00 27.4 6 Sudoeste 17 Sudoeste 0 -- -- 59
2019-08-28 18:00:00 28.3 8 Sudoeste 20 Sudeste 0 -- -- 56
2019-08-28 17:00:00 28.7 6 Sur 18 Sudeste 0 -- -- 53
2019-08-28 16:00:00 29.1 9 Sudeste 18 Sudeste 0 -- -- 53
2019-08-28 15:00:00 28.4 10 Sudeste 22 Sudeste 0 -- -- 54
2019-08-28 14:00:00 28.5 9 Sudeste 23 Sudeste 0 -- -- 53
2019-08-28 13:00:00 28.4 7 Sur 19 Sudeste 0 -- -- 54
2019-08-28 12:00:00 27.7 12 Sudeste 19 Sudeste 0 -- -- 54
2019-08-28 11:00:00 27.6 4 Noroeste 10 Noroeste 0 -- -- 57
2019-08-28 10:00:00 25.7 4 Norte 10 Noroeste 0 -- -- 65
2019-08-28 09:00:00 22.5 2 Noroeste 8 Noroeste 0 -- -- 79
2019-08-28 08:00:00 20.4 3 Norte 13 Norte 0 -- -- 85
2019-08-28 07:00:00 20.4 6 Norte 13 Norte 0 -- -- 86
2019-08-28 06:00:00 20.3 4 Norte 10 Norte 0 -- -- 89
2019-08-28 05:00:00 20.3 3 Norte 8 Norte 0 -- -- 92
2019-08-28 04:00:00 20.7 0 Calma 9 Noroeste 0 -- -- 90
2019-08-28 03:00:00 21.3 4 Noroeste 11 Noroeste 0 -- -- 90
2019-08-28 02:00:00 21.8 2 Noroeste 9 Sudoeste 0 -- -- 91
2019-08-28 01:00:00 21.9 0 Calma 11 Norte 0 -- -- 90
2019-08-28 00:00:00 21.7 5 Norte 10 Norte 0 -- -- 92
2019-08-27 23:00:00 21.8 0 Calma 4 Norte 0 -- -- 93
2019-08-27 22:00:00 21.7 2 Noroeste 5 Noroeste 0 -- -- 92
2019-08-27 21:00:00 22 0 Calma 10 Norte 0 -- -- 90
2019-08-27 20:00:00 21.9 5 Norte 13 Norte 0 -- -- 89
2019-08-27 19:00:00 22.2 4 Noroeste 8 Noroeste 0 -- -- 90
2019-08-27 18:00:00 22 0 Calma 22 Sudeste 2.4 -- -- 90
2019-08-27 17:00:00 22.9 6 Norte 14 Norte 0 -- -- 92
2019-08-27 16:00:00 21.9 7 Noroeste 30 Nordeste 1.6 -- -- 91
2019-08-27 15:00:00 22.3 12 Este 35 Este 21 -- -- 82
2019-08-27 14:00:00 27.1 10 Este 24 Este 0.2 -- -- 75
2019-08-27 13:00:00 26.3 8 Sudeste 20 Este 0.2 -- -- 79
2019-08-27 12:00:00 26.5 6 Sudeste 14 Este 0 -- -- 66
2019-08-27 11:00:00 25.5 6 Sudeste 13 Sudeste 0 -- -- 73
2019-08-27 10:00:00 24.2 4 Norte 10 Noroeste 0 -- -- 79
2019-08-27 09:00:00 22 6 Sudeste 12 Este 0 -- -- 84
2019-08-27 08:00:00 22.1 4 Nordeste 12 Nordeste 1 -- -- 90
2019-08-27 07:00:00 23 4 Noroeste 8 Norte 0.2 -- -- 91
2019-08-27 06:00:00 23 3 Nordeste 14 Norte 0.2 -- -- 90
2019-08-27 05:00:00 23.5 3 Norte 7 Norte 0.4 -- -- 90
2019-08-27 04:00:00 24.2 4 Sudeste 10 Sudeste 0.2 -- -- 85
2019-08-27 03:00:00 24.3 2 Sudoeste 16 Nordeste 0 -- -- 86
2019-08-27 02:00:00 23.6 10 Este 33 Este 0.2 -- -- 89
2019-08-27 01:00:00 24 3 Este 9 Noroeste 0 -- -- 90
2019-08-27 00:00:00 24.6 3 Nordeste 7 Este 0.4 -- -- 86
2019-08-26 23:00:00 24.8 2 Sudeste 6 Este 0 -- -- 83
2019-08-26 22:00:00 25.1 3 Este 8 Este 0 -- -- 82
2019-08-26 21:00:00 25.7 5 Sudeste 11 Sudeste 0 -- -- 81
2019-08-26 20:00:00 26.2 6 Sudeste 13 Sudeste 0 -- -- 77
2019-08-26 19:00:00 26.5 8 Sudeste 17 Sudeste 0 -- -- 74
2019-08-26 18:00:00 27.3 9 Sudeste 18 Este 0 -- -- 62
2019-08-26 17:00:00 27.3 8 Sudeste 15 Sudeste 0 -- -- 66
2019-08-26 16:00:00 27.8 7 Sudeste 14 Sudoeste 0 -- -- 65
2019-08-26 15:00:00 28.1 8 Sudeste 15 Sur 0 -- -- 59
2019-08-26 14:00:00 28.1 7 Sudoeste 21 Sudeste 0 -- -- 63
2019-08-26 13:00:00 28.9 10 Sudeste 17 Sudeste 0 -- -- 59
2019-08-26 12:00:00 28.9 7 Sudeste 14 Sudeste 0 -- -- 60
2019-08-26 11:00:00 28.6 6 Sudeste 12 Sudeste 0 -- -- 61
2019-08-26 10:00:00 26.6 3 Noroeste 8 Noroeste 0 -- -- 71
2019-08-26 09:00:00 23.7 3 Noroeste 10 Noroeste 0 -- -- 63
2019-08-26 08:00:00 20.3 5 Noroeste 10 Noroeste 0 -- -- 72
2019-08-26 07:00:00 19.8 2 Noroeste 8 Norte 0 -- -- 83
2019-08-26 06:00:00 20.3 0 Calma 5 Noroeste 0 -- -- 88
2019-08-26 05:00:00 20.6 0 Calma 7 Noroeste 0 -- -- 89
2019-08-26 04:00:00 21.1 0 Calma 4 Noroeste 0 -- -- 86
2019-08-26 03:00:00 21.7 2 Noroeste 5 Noroeste 0 -- -- 86
2019-08-26 02:00:00 22.4 3 Norte 7 Noroeste 0 -- -- 86
2019-08-26 01:00:00 22.9 3 Noroeste 5 Noroeste 0 -- -- 85
2019-08-26 00:00:00 23.6 0 Calma 4 Este 0 -- -- 84
2019-08-25 23:00:00 24.2 0 Calma 6 Este 0 -- -- 81
2019-08-25 22:00:00 25.1 2 Este 5 Oeste 0 -- -- 76
2019-08-25 21:00:00 25.9 2 Sudoeste 11 Sudoeste 0 -- -- 72
2019-08-25 20:00:00 26.8 5 Sur 14 Sur 0 -- -- 71
2019-08-25 19:00:00 27.5 7 Sudoeste 17 Sudoeste 0 -- -- 68
2019-08-25 18:00:00 28.6 6 Sur 19 Sudeste 0 -- -- 62
2019-08-25 17:00:00 28.9 9 Sudoeste 19 Este 0 -- -- 66
2019-08-25 16:00:00 29 8 Sudoeste 22 Sudeste 0 -- -- 66
2019-08-25 15:00:00 29 8 Sur 19 Sudeste 0 -- -- 64
2019-08-25 14:00:00 28.7 9 Sudeste 21 Sudeste 0 -- -- 65
2019-08-25 13:00:00 28 10 Sudeste 22 Sudeste 0 -- -- 70
2019-08-25 12:00:00 27.8 9 Sudoeste 17 Sudoeste 0 -- -- 67
2019-08-25 11:00:00 27.6 5 Sur 12 Este 0 -- -- 68
2019-08-25 10:00:00 26.5 3 Sur 8 Sur 0 -- -- 70
2019-08-25 09:00:00 24.1 2 Norte 8 Noroeste 0 -- -- 69
2019-08-25 08:00:00 21.2 3 Norte 9 Nordeste 0 -- -- 82
2019-08-25 07:00:00 21 4 Noroeste 8 Noroeste 0 -- -- 87
2019-08-25 06:00:00 21.4 0 Calma 4 Noroeste 0 -- -- 88
2019-08-25 05:00:00 21.7 3 Noroeste 4 Noroeste 0 -- -- 86
2019-08-25 04:00:00 22.2 0 Calma 5 Norte 0 -- -- 85
2019-08-25 03:00:00 22.8 3 Noroeste 6 Noroeste 0 -- -- 83
2019-08-25 02:00:00 23.1 4 Noroeste 6 Noroeste 0 -- -- 83
2019-08-25 01:00:00 23.6 2 Noroeste 4 Noroeste 0 -- -- 82
2019-08-25 00:00:00 24 0 Calma 5 Sudeste 0 -- -- 80
2019-08-24 23:00:00 24.8 0 Calma 8 Sudeste 0 -- -- 76
2019-08-24 22:00:00 25.7 3 Sudeste 10 Sudeste 0 -- -- 72
2019-08-24 21:00:00 26 4 Sudeste 13 Sudeste 0 -- -- 70
2019-08-24 20:00:00 26.5 8 Sudeste 15 Sudeste 0 -- -- 66
2019-08-24 19:00:00 27.4 6 Sudeste 17 Sudeste 0 -- -- 60
2019-08-24 18:00:00 28.6 8 Sudeste 17 Este 0 -- -- 57
2019-08-24 17:00:00 29 10 Sudoeste 23 Sudeste 0 -- -- 53
2019-08-24 16:00:00 29.1 11 Sudeste 24 Sudeste 0 -- -- 54
2019-08-24 15:00:00 29 9 Sudeste 22 Sudeste 0 -- -- 55
2019-08-24 14:00:00 28.9 10 Sur 20 Sudoeste 0 -- -- 53
2019-08-24 13:00:00 28.7 11 Sudeste 18 Sudeste 0 -- -- 54
2019-08-24 12:00:00 28.4 9 Sudeste 16 Este 0 -- -- 51
2019-08-24 11:00:00 27.7 5 Sur 10 Sudeste 0 -- -- 57
2019-08-24 10:00:00 26.6 3 Noroeste 9 Noroeste 0 -- -- 59
2019-08-24 09:00:00 23.7 4 Norte 10 Noroeste 0 -- -- 65
2019-08-24 08:00:00 20.4 5 Noroeste 10 Norte 0 -- -- 74
2019-08-24 07:00:00 20 2 Noroeste 4 Noroeste 0 -- -- 76
2019-08-24 06:00:00 20 2 Norte 5 Noroeste 0 -- -- 76
2019-08-24 05:00:00 20.3 0 Calma 3 Noroeste 0 -- -- 78
2019-08-24 04:00:00 20.6 2 Norte 3 Noroeste 0 -- -- 78
2019-08-24 03:00:00 20.9 0 Calma 6 Noroeste 0 -- -- 80
2019-08-24 02:00:00 21.5 2 Noroeste 5 Noroeste 0 -- -- 82
2019-08-24 01:00:00 22.4 0 Calma 4 Noroeste 0 -- -- 81
2019-08-24 00:00:00 23.1 0 Calma 4 Este 0 -- -- 82
2019-08-23 23:00:00 23.6 0 Calma 3 Nordeste 0 -- -- 79
2019-08-23 22:00:00 24.4 0 Calma 9 Este 0 -- -- 75
2019-08-23 21:00:00 25.4 4 Sudeste 9 Sudeste 0 -- -- 70
2019-08-23 20:00:00 26.1 5 Sudeste 13 Sudeste 0 -- -- 67
2019-08-23 19:00:00 26.9 7 Sur 15 Sudeste 0 -- -- 64
2019-08-23 18:00:00 28.1 6 Sur 15 Sudeste 0 -- -- 59
2019-08-23 17:00:00 28.3 9 Sudeste 23 Sudeste 0 -- -- 56
2019-08-23 16:00:00 29.1 14 Sudeste 22 Sudeste 0 -- -- 55
2019-08-23 15:00:00 29.1 11 Sudeste 22 Sudeste 0 -- -- 55
2019-08-23 14:00:00 28.6 10 Sudeste 23 Sudeste 0 -- -- 56
2019-08-23 13:00:00 28.1 13 Sudeste 22 Este 0 -- -- 63
2019-08-23 12:00:00 27.6 12 Sudeste 20 Este 0 -- -- 66
2019-08-23 11:00:00 27.2 7 Este 15 Este 0 -- -- 66
2019-08-23 10:00:00 26.4 6 Sudeste 13 Sudeste 0 -- -- 59
2019-08-23 09:00:00 24.1 0 Calma 5 Sudeste 0 -- -- 64
2019-08-23 08:00:00 21 3 Nordeste 12 Este 0 -- -- 72
2019-08-23 07:00:00 20.5 0 Calma 9 Norte 0 -- -- 76
2019-08-23 06:00:00 20.7 3 Norte 11 Norte 0 -- -- 76
2019-08-23 05:00:00 21 5 Noroeste 9 Noroeste 0 -- -- 84
2019-08-23 04:00:00 21.6 2 Noroeste 5 Noroeste 0 -- -- 84
2019-08-23 03:00:00 21.7 0 Calma 4 Noroeste 0 -- -- 82
2019-08-23 02:00:00 22.4 0 Calma 10 Noroeste 0 -- -- 79
2019-08-23 01:00:00 23.2 6 Noroeste 10 Noroeste 0 -- -- 76
2019-08-23 00:00:00 24.1 2 Noroeste 8 Sur 0 -- -- 76